sensor_id;sensor_type;location;lat;lon;timestamp;pressure;altitude;pressure_sealevel;temperature;humidity
22206;BME280;11272;50.104;8.754;2022-10-16T00:00:38;100337.66;;;17.01;94.48
22206;BME280;11272;50.104;8.754;2022-10-16T00:03:05;100336.72;;;17.02;94.42
22206;BME280;11272;50.104;8.754;2022-10-16T00:05:30;100341.16;;;17.03;94.62
22206;BME280;11272;50.104;8.754;2022-10-16T00:07:56;100339.41;;;17.02;94.43
22206;BME280;11272;50.104;8.754;2022-10-16T00:10:21;100320.56;;;17.03;94.56
22206;BME280;11272;50.104;8.754;2022-10-16T00:12:47;100314.31;;;17.03;94.50
22206;BME280;11272;50.104;8.754;2022-10-16T00:15:12;100315.25;;;17.02;94.59
22206;BME280;11272;50.104;8.754;2022-10-16T00:17:38;100312.66;;;17.00;94.47
22206;BME280;11272;50.104;8.754;2022-10-16T00:47:10;100322.06;;;17.09;95.26
22206;BME280;11272;50.104;8.754;2022-10-16T00:49:38;100326.56;;;17.08;95.38
22206;BME280;11272;50.104;8.754;2022-10-16T00:52:05;100314.09;;;17.07;95.24
22206;BME280;11272;50.104;8.754;2022-10-16T00:54:31;100316.69;;;17.09;95.45
22206;BME280;11272;50.104;8.754;2022-10-16T00:56:59;100317.56;;;17.09;95.78
22206;BME280;11272;50.104;8.754;2022-10-16T00:59:29;100318.41;;;17.10;95.48
22206;BME280;11272;50.104;8.754;2022-10-16T01:01:56;100320.16;;;17.11;95.63
22206;BME280;11272;50.104;8.754;2022-10-16T01:04:23;100326.41;;;17.11;95.34
22206;BME280;11272;50.104;8.754;2022-10-16T01:10:14;100320.03;;;17.14;95.73
22206;BME280;11272;50.104;8.754;2022-10-16T01:13:05;100321.72;;;17.15;95.78
22206;BME280;11272;50.104;8.754;2022-10-16T01:19:08;100340.38;;;17.18;95.81
22206;BME280;11272;50.104;8.754;2022-10-16T01:21:40;100346.56;;;17.20;95.73
22206;BME280;11272;50.104;8.754;2022-10-16T01:29:40;100358.06;;;17.22;95.67
22206;BME280;11272;50.104;8.754;2022-10-16T01:34:47;100367.06;;;17.21;95.64
22206;BME280;11272;50.104;8.754;2022-10-16T01:37:20;100348.28;;;17.21;95.60
22206;BME280;11272;50.104;8.754;2022-10-16T01:39:47;100349.16;;;17.21;95.67
22206;BME280;11272;50.104;8.754;2022-10-16T01:42:22;100339.28;;;17.22;95.60
22206;BME280;11272;50.104;8.754;2022-10-16T01:44:51;100335.72;;;17.21;95.42
22206;BME280;11272;50.104;8.754;2022-10-16T01:47:19;100335.97;;;17.17;95.14
22206;BME280;11272;50.104;8.754;2022-10-16T01:49:45;100339.75;;;17.13;95.02
22206;BME280;11272;50.104;8.754;2022-10-16T01:52:15;100347.09;;;17.09;94.98
22206;BME280;11272;50.104;8.754;2022-10-16T01:54:44;100337.38;;;17.07;95.10
22206;BME280;11272;50.104;8.754;2022-10-16T01:57:12;100345.59;;;17.04;94.96
22206;BME280;11272;50.104;8.754;2022-10-16T01:59:46;100353.63;;;17.04;95.32
22206;BME280;11272;50.104;8.754;2022-10-16T02:02:14;100359.06;;;17.02;95.20
22206;BME280;11272;50.104;8.754;2022-10-16T02:04:45;100370.66;;;17.03;95.44
22206;BME280;11272;50.104;8.754;2022-10-16T02:07:11;100365.31;;;17.03;95.38
22206;BME280;11272;50.104;8.754;2022-10-16T02:09:38;100360.88;;;17.02;95.51
22206;BME280;11272;50.104;8.754;2022-10-16T02:12:09;100361.81;;;17.01;95.41
22206;BME280;11272;50.104;8.754;2022-10-16T02:14:56;100361.81;;;17.01;95.60
22206;BME280;11272;50.104;8.754;2022-10-16T02:17:22;100368.06;;;17.01;95.10
22206;BME280;11272;50.104;8.754;2022-10-16T02:19:49;100367.25;;;16.99;95.38
22206;BME280;11272;50.104;8.754;2022-10-16T02:22:28;100365.44;;;17.00;95.29
22206;BME280;11272;50.104;8.754;2022-10-16T02:25:06;100377.13;;;16.99;95.41
22206;BME280;11272;50.104;8.754;2022-10-16T02:32:53;100372.59;;;16.99;95.19
22206;BME280;11272;50.104;8.754;2022-10-16T02:35:23;100372.53;;;17.01;95.23
22206;BME280;11272;50.104;8.754;2022-10-16T02:37:50;100362.84;;;16.98;95.28
22206;BME280;11272;50.104;8.754;2022-10-16T02:40:18;100369.94;;;16.99;95.03
22206;BME280;11272;50.104;8.754;2022-10-16T02:42:44;100370.78;;;17.00;95.13
22206;BME280;11272;50.104;8.754;2022-10-16T02:45:11;100369.88;;;17.01;95.18
22206;BME280;11272;50.104;8.754;2022-10-16T02:47:37;100379.66;;;17.02;94.99
22206;BME280;11272;50.104;8.754;2022-10-16T02:50:03;100375.22;;;17.01;94.81
22206;BME280;11272;50.104;8.754;2022-10-16T02:52:28;100369.94;;;16.99;94.63
22206;BME280;11272;50.104;8.754;2022-10-16T02:54:54;100370.03;;;16.98;94.20
22206;BME280;11272;50.104;8.754;2022-10-16T02:57:20;100378.13;;;16.96;94.35
22206;BME280;11272;50.104;8.754;2022-10-16T02:59:45;100378.19;;;16.95;94.41
22206;BME280;11272;50.104;8.754;2022-10-16T03:02:11;100381.75;;;16.95;94.31
22206;BME280;11272;50.104;8.754;2022-10-16T03:04:37;100381.81;;;16.94;94.27
22206;BME280;11272;50.104;8.754;2022-10-16T03:07:03;100377.34;;;16.94;94.40
22206;BME280;11272;50.104;8.754;2022-10-16T03:09:28;100396.03;;;16.96;94.23
22206;BME280;11272;50.104;8.754;2022-10-16T03:11:54;100399.66;;;16.95;94.25
22206;BME280;11272;50.104;8.754;2022-10-16T03:14:19;100401.41;;;16.96;94.40
22206;BME280;11272;50.104;8.754;2022-10-16T03:16:45;100398.72;;;16.96;94.21
22206;BME280;11272;50.104;8.754;2022-10-16T03:19:10;100396.03;;;16.96;94.35
22206;BME280;11272;50.104;8.754;2022-10-16T03:21:36;100404.09;;;16.96;94.30
22206;BME280;11272;50.104;8.754;2022-10-16T03:24:01;100401.41;;;16.96;94.16
22206;BME280;11272;50.104;8.754;2022-10-16T03:26:27;100398.72;;;16.96;94.43
22206;BME280;11272;50.104;8.754;2022-10-16T03:28:52;100408.53;;;16.97;94.25
22206;BME280;11272;50.104;8.754;2022-10-16T03:31:18;100404.03;;;16.97;94.38
22206;BME280;11272;50.104;8.754;2022-10-16T03:33:43;100410.09;;;17.01;94.27
22206;BME280;11272;50.104;8.754;2022-10-16T03:36:09;100419.09;;;17.00;94.31
22206;BME280;11272;50.104;8.754;2022-10-16T03:43:58;100405.56;;;17.03;94.26
22206;BME280;11272;50.104;8.754;2022-10-16T03:46:24;100403.81;;;17.02;94.18
22206;BME280;11272;50.104;8.754;2022-10-16T03:48:49;100409.97;;;17.04;94.06
22206;BME280;11272;50.104;8.754;2022-10-16T03:51:14;100416.13;;;17.06;94.22
22206;BME280;11272;50.104;8.754;2022-10-16T04:01:45;100415.03;;;17.10;94.00
22206;BME280;11272;50.104;8.754;2022-10-16T04:31:10;100440.69;;;17.15;93.42
22206;BME280;11272;50.104;8.754;2022-10-16T04:33:36;100444.19;;;17.17;93.30
22206;BME280;11272;50.104;8.754;2022-10-16T04:36:03;100445.06;;;17.18;93.23
22206;BME280;11272;50.104;8.754;2022-10-16T04:38:29;100436.06;;;17.19;93.05
22206;BME280;11272;50.104;8.754;2022-10-16T04:40:55;100438.75;;;17.19;93.13
22206;BME280;11272;50.104;8.754;2022-10-16T04:43:21;100438.66;;;17.20;93.16
22206;BME280;11272;50.104;8.754;2022-10-16T04:45:47;100441.44;;;17.19;93.03
22206;BME280;11272;50.104;8.754;2022-10-16T04:48:12;100436.06;;;17.19;93.00
22206;BME280;11272;50.104;8.754;2022-10-16T04:50:38;100444.03;;;17.20;93.05
22206;BME280;11272;50.104;8.754;2022-10-16T04:53:05;100439.53;;;17.21;92.94
22206;BME280;11272;50.104;8.754;2022-10-16T04:55:30;100441.28;;;17.22;93.01
22206;BME280;11272;50.104;8.754;2022-10-16T04:57:56;100441.22;;;17.23;93.02
22206;BME280;11272;50.104;8.754;2022-10-16T05:00:21;100433.16;;;17.23;92.72
22206;BME280;11272;50.104;8.754;2022-10-16T05:02:49;100436.59;;;17.25;92.56
22206;BME280;11272;50.104;8.754;2022-10-16T05:05:15;100445.47;;;17.27;92.51
22206;BME280;11272;50.104;8.754;2022-10-16T05:07:40;100447.28;;;17.27;92.39
22206;BME280;11272;50.104;8.754;2022-10-16T05:10:09;100450.84;;;17.27;92.64
22206;BME280;11272;50.104;8.754;2022-10-16T05:12:34;100441.91;;;17.27;92.46
22206;BME280;11272;50.104;8.754;2022-10-16T05:15:01;100451.72;;;17.28;92.23
22206;BME280;11272;50.104;8.754;2022-10-16T05:17:27;100447.22;;;17.29;92.14
22206;BME280;11272;50.104;8.754;2022-10-16T05:19:55;100441.84;;;17.29;92.03
22206;BME280;11272;50.104;8.754;2022-10-16T05:22:22;100451.72;;;17.28;92.08
22206;BME280;11272;50.104;8.754;2022-10-16T05:24:48;100453.47;;;17.29;91.95
22206;BME280;11272;50.104;8.754;2022-10-16T05:27:14;100455.28;;;17.29;92.00
22206;BME280;11272;50.104;8.754;2022-10-16T05:29:48;100458.81;;;17.29;91.82
22206;BME280;11272;50.104;8.754;2022-10-16T05:32:14;100461.50;;;17.29;91.83
22206;BME280;11272;50.104;8.754;2022-10-16T05:34:40;100463.31;;;17.29;91.73
22206;BME280;11272;50.104;8.754;2022-10-16T05:37:06;100464.19;;;17.29;91.72
22206;BME280;11272;50.104;8.754;2022-10-16T05:39:31;100460.56;;;17.30;91.43
22206;BME280;11272;50.104;8.754;2022-10-16T05:41:57;100448.88;;;17.31;91.68
22206;BME280;11272;50.104;8.754;2022-10-16T05:44:23;100433.72;;;17.30;91.38
22206;BME280;11272;50.104;8.754;2022-10-16T05:46:48;100435.59;;;17.28;91.58
22206;BME280;11272;50.104;8.754;2022-10-16T05:49:14;100432.13;;;17.26;91.28
22206;BME280;11272;50.104;8.754;2022-10-16T05:51:40;100439.53;;;17.21;91.15
22206;BME280;11272;50.104;8.754;2022-10-16T05:54:06;100449.38;;;17.20;91.55
22206;BME280;11272;50.104;8.754;2022-10-16T08:41:37;100661.69;;;18.28;91.60
22206;BME280;11272;50.104;8.754;2022-10-16T09:00:21;100687.53;;;18.49;91.90
22206;BME280;11272;50.104;8.754;2022-10-16T09:03:07;100687.69;;;18.46;91.58
22206;BME280;11272;50.104;8.754;2022-10-16T09:09:08;100692.44;;;18.41;91.44
22206;BME280;11272;50.104;8.754;2022-10-16T09:14:40;100705.94;;;18.40;91.65
22206;BME280;11272;50.104;8.754;2022-10-16T09:17:12;100710.50;;;18.38;91.60
22206;BME280;11272;50.104;8.754;2022-10-16T09:19:54;100710.50;;;18.38;91.73
22206;BME280;11272;50.104;8.754;2022-10-16T09:22:27;100708.69;;;18.38;91.65
22206;BME280;11272;50.104;8.754;2022-10-16T09:24:56;100718.50;;;18.39;91.75
22206;BME280;11272;50.104;8.754;2022-10-16T09:27:26;100725.66;;;18.40;91.88
22206;BME280;11272;50.104;8.754;2022-10-16T09:29:51;100718.28;;;18.44;91.55
22206;BME280;11272;50.104;8.754;2022-10-16T09:32:20;100725.28;;;18.48;91.92
22206;BME280;11272;50.104;8.754;2022-10-16T09:34:50;100727.75;;;18.52;91.92
22206;BME280;11272;50.104;8.754;2022-10-16T09:37:19;100734.75;;;18.57;91.97
22206;BME280;11272;50.104;8.754;2022-10-16T09:39:52;100734.44;;;18.63;92.05
22206;BME280;11272;50.104;8.754;2022-10-16T09:42:33;100740.75;;;18.62;91.59
22206;BME280;11272;50.104;8.754;2022-10-16T09:45:00;100747.31;;;18.56;91.38
22206;BME280;11272;50.104;8.754;2022-10-16T09:55:32;100761.56;;;18.21;92.12
22206;BME280;11272;50.104;8.754;2022-10-16T09:57:57;100758.94;;;18.19;93.22
22206;BME280;11272;50.104;8.754;2022-10-16T10:00:24;100757.06;;;18.21;93.82
22206;BME280;11272;50.104;8.754;2022-10-16T10:02:51;100761.56;;;18.21;94.50
22206;BME280;11272;50.104;8.754;2022-10-16T10:05:22;100763.22;;;18.23;95.44
22206;BME280;11272;50.104;8.754;2022-10-16T10:08:01;100755.03;;;18.26;96.61
22206;BME280;11272;50.104;8.754;2022-10-16T10:10:32;100763.75;;;18.31;97.18
22206;BME280;11272;50.104;8.754;2022-10-16T10:12:58;100773.63;;;18.31;97.32
22206;BME280;11272;50.104;8.754;2022-10-16T10:15:25;100763.97;;;18.27;97.69
22206;BME280;11272;50.104;8.754;2022-10-16T10:17:57;100756.63;;;18.30;98.80
22206;BME280;11272;50.104;8.754;2022-10-16T10:20:27;100757.97;;;18.39;99.32
22206;BME280;11272;50.104;8.754;2022-10-16T10:22:53;100758.63;;;18.44;99.77
22206;BME280;11272;50.104;8.754;2022-10-16T10:25:32;100763.66;;;18.51;100.00
22206;BME280;11272;50.104;8.754;2022-10-16T10:41:27;100762.19;;;18.99;100.00
22206;BME280;11272;50.104;8.754;2022-10-16T10:53:01;100756.47;;;19.40;100.00
22206;BME280;11272;50.104;8.754;2022-10-16T10:55:52;100753.34;;;19.49;100.00
22206;BME280;11272;50.104;8.754;2022-10-16T10:58:57;100751.66;;;19.96;100.00
22206;BME280;11272;50.104;8.754;2022-10-16T11:01:37;100746.59;;;20.84;100.00
22206;BME280;11272;50.104;8.754;2022-10-16T11:07:02;100740.53;;;23.20;100.00
22206;BME280;11272;50.104;8.754;2022-10-16T11:09:50;100728.19;;;24.05;95.52
22206;BME280;11272;50.104;8.754;2022-10-16T11:12:25;100720.38;;;24.13;89.79
22206;BME280;11272;50.104;8.754;2022-10-16T11:15:12;100721.28;;;24.50;90.16
22206;BME280;11272;50.104;8.754;2022-10-16T11:17:42;100721.22;;;24.86;86.59
22206;BME280;11272;50.104;8.754;2022-10-16T11:20:30;100719.09;;;25.37;87.35
22206;BME280;11272;50.104;8.754;2022-10-16T11:23:18;100719.25;;;26.47;84.94
22206;BME280;11272;50.104;8.754;2022-10-16T11:26:04;100718.72;;;27.28;78.45
22206;BME280;11272;50.104;8.754;2022-10-16T11:28:38;100722.03;;;27.94;75.71
22206;BME280;11272;50.104;8.754;2022-10-16T11:31:13;100712.81;;;28.25;73.15
22206;BME280;11272;50.104;8.754;2022-10-16T11:33:45;100713.72;;;28.55;70.86
22206;BME280;11272;50.104;8.754;2022-10-16T11:36:36;100720.56;;;28.20;71.05
22206;BME280;11272;50.104;8.754;2022-10-16T11:49:31;100712.69;;;27.66;67.16
22206;BME280;11272;50.104;8.754;2022-10-16T11:52:20;100713.50;;;28.18;65.44
22206;BME280;11272;50.104;8.754;2022-10-16T11:55:33;100723.84;;;28.14;64.84
22206;BME280;11272;50.104;8.754;2022-10-16T11:58:05;100713.38;;;28.19;62.29
22206;BME280;11272;50.104;8.754;2022-10-16T12:00:51;100713.09;;;27.61;60.48
22206;BME280;11272;50.104;8.754;2022-10-16T12:08:39;100714.81;;;25.68;62.09
22206;BME280;11272;50.104;8.754;2022-10-16T12:11:22;100708.53;;;25.33;62.12
22206;BME280;11272;50.104;8.754;2022-10-16T12:13:48;100714.28;;;24.82;63.04
22206;BME280;11272;50.104;8.754;2022-10-16T12:18:43;100728.78;;;23.84;65.23
22206;BME280;11272;50.104;8.754;2022-10-16T12:21:10;100723.91;;;23.64;66.12
22206;BME280;11272;50.104;8.754;2022-10-16T12:23:47;100713.41;;;24.58;65.79
22206;BME280;11272;50.104;8.754;2022-10-16T12:26:24;100698.00;;;25.74;64.10
22206;BME280;11272;50.104;8.754;2022-10-16T12:28:49;100703.78;;;26.79;61.44
22206;BME280;11272;50.104;8.754;2022-10-16T12:31:16;100710.19;;;27.63;58.56
22206;BME280;11272;50.104;8.754;2022-10-16T12:33:59;100699.50;;;28.11;57.97
22206;BME280;11272;50.104;8.754;2022-10-16T12:36:29;100701.16;;;28.82;56.09
22206;BME280;11272;50.104;8.754;2022-10-16T12:38:56;100702.00;;;29.41;53.79
22206;BME280;11272;50.104;8.754;2022-10-16T12:41:34;100697.22;;;29.89;51.90
22206;BME280;11272;50.104;8.754;2022-10-16T12:44:01;100713.53;;;30.28;50.72
22206;BME280;11272;50.104;8.754;2022-10-16T12:51:39;100706.44;;;30.07;49.70
22206;BME280;11272;50.104;8.754;2022-10-16T12:54:14;100710.47;;;29.57;49.53
22206;BME280;11272;50.104;8.754;2022-10-16T13:11:05;100721.28;;;25.89;55.81
22206;BME280;11272;50.104;8.754;2022-10-16T13:13:52;100717.44;;;25.35;56.92
22206;BME280;11272;50.104;8.754;2022-10-16T13:22:33;100726.06;;;24.70;59.29
22206;BME280;11272;50.104;8.754;2022-10-16T13:27:54;100736.97;;;24.21;60.38
22206;BME280;11272;50.104;8.754;2022-10-16T13:30:43;100739.28;;;23.89;61.58
22206;BME280;11272;50.104;8.754;2022-10-16T13:33:19;100734.75;;;23.77;62.00
22206;BME280;11272;50.104;8.754;2022-10-16T13:35:52;100734.75;;;23.64;62.46
22206;BME280;11272;50.104;8.754;2022-10-16T13:38:21;100731.94;;;23.53;63.08
22206;BME280;11272;50.104;8.754;2022-10-16T13:40:57;100731.28;;;23.49;63.55
22206;BME280;11272;50.104;8.754;2022-10-16T13:46:00;100742.78;;;23.66;63.79
22206;BME280;11272;50.104;8.754;2022-10-16T13:48:27;100730.31;;;23.63;64.20
22206;BME280;11272;50.104;8.754;2022-10-16T13:51:16;100731.94;;;23.66;63.77
22206;BME280;11272;50.104;8.754;2022-10-16T13:53:45;100730.84;;;23.56;64.06
22206;BME280;11272;50.104;8.754;2022-10-16T13:56:16;100727.81;;;23.47;63.97
22206;BME280;11272;50.104;8.754;2022-10-16T13:58:43;100740.13;;;23.39;64.08
22206;BME280;11272;50.104;8.754;2022-10-16T14:01:28;100739.44;;;23.10;64.49
22206;BME280;11272;50.104;8.754;2022-10-16T14:04:02;100733.22;;;22.95;64.97
22206;BME280;11272;50.104;8.754;2022-10-16T14:06:28;100733.16;;;22.83;65.47
22206;BME280;11272;50.104;8.754;2022-10-16T14:09:05;100727.97;;;22.80;65.75
22206;BME280;11272;50.104;8.754;2022-10-16T14:11:32;100726.03;;;22.67;65.89
22206;BME280;11272;50.104;8.754;2022-10-16T14:13:58;100727.94;;;22.53;66.25
22206;BME280;11272;50.104;8.754;2022-10-16T14:16:27;100727.47;;;22.46;66.70
22206;BME280;11272;50.104;8.754;2022-10-16T14:19:00;100721.09;;;22.33;66.86
22206;BME280;11272;50.104;8.754;2022-10-16T14:21:27;100720.97;;;22.08;67.47
22206;BME280;11272;50.104;8.754;2022-10-16T14:23:53;100719.03;;;21.81;68.46
22206;BME280;11272;50.104;8.754;2022-10-16T14:26:23;100717.00;;;21.71;68.80
22206;BME280;11272;50.104;8.754;2022-10-16T14:29:11;100725.78;;;21.60;69.29
22206;BME280;11272;50.104;8.754;2022-10-16T14:31:37;100728.38;;;21.48;69.73
22206;BME280;11272;50.104;8.754;2022-10-16T14:34:23;100734.78;;;21.47;70.29
22206;BME280;11272;50.104;8.754;2022-10-16T14:36:49;100738.06;;;21.52;70.58
22206;BME280;11272;50.104;8.754;2022-10-16T14:39:20;100728.00;;;21.54;70.48
22206;BME280;11272;50.104;8.754;2022-10-16T14:41:49;100732.53;;;21.53;70.85
22206;BME280;11272;50.104;8.754;2022-10-16T14:44:17;100733.13;;;21.58;71.04
22206;BME280;11272;50.104;8.754;2022-10-16T14:46:44;100741.25;;;21.72;71.14
22206;BME280;11272;50.104;8.754;2022-10-16T14:49:17;100743.38;;;21.67;71.17
22206;BME280;11272;50.104;8.754;2022-10-16T14:51:45;100744.91;;;21.71;71.31
22206;BME280;11272;50.104;8.754;2022-10-16T14:54:13;100737.75;;;21.70;71.36
22206;BME280;11272;50.104;8.754;2022-10-16T14:56:47;100730.03;;;21.64;71.55
22206;BME280;11272;50.104;8.754;2022-10-16T14:59:25;100730.44;;;21.72;71.88
22206;BME280;11272;50.104;8.754;2022-10-16T15:01:53;100741.16;;;21.74;71.57
22206;BME280;11272;50.104;8.754;2022-10-16T15:04:18;100742.69;;;21.64;71.90
22206;BME280;11272;50.104;8.754;2022-10-16T15:06:44;100741.63;;;21.52;71.96
22206;BME280;11272;50.104;8.754;2022-10-16T15:09:10;100742.00;;;21.46;72.37
22206;BME280;11272;50.104;8.754;2022-10-16T15:11:37;100741.22;;;21.44;72.50
22206;BME280;11272;50.104;8.754;2022-10-16T15:14:03;100735.63;;;21.47;72.73
22206;BME280;11272;50.104;8.754;2022-10-16T15:16:30;100733.91;;;21.46;72.83
22206;BME280;11272;50.104;8.754;2022-10-16T15:18:56;100728.06;;;21.38;72.98
22206;BME280;11272;50.104;8.754;2022-10-16T15:21:24;100736.31;;;21.36;73.43
22206;BME280;11272;50.104;8.754;2022-10-16T15:23:51;100743.84;;;21.46;73.43
22206;BME280;11272;50.104;8.754;2022-10-16T15:26:17;100744.34;;;21.52;73.50
22206;BME280;11272;50.104;8.754;2022-10-16T15:28:42;100739.50;;;21.57;73.37
22206;BME280;11272;50.104;8.754;2022-10-16T15:31:07;100742.00;;;21.60;73.45
22206;BME280;11272;50.104;8.754;2022-10-16T15:33:33;100738.53;;;21.58;73.24
22206;BME280;11272;50.104;8.754;2022-10-16T15:36:01;100745.66;;;21.45;73.61
22206;BME280;11272;50.104;8.754;2022-10-16T15:38:28;100741.00;;;21.33;74.12
22206;BME280;11272;50.104;8.754;2022-10-16T15:40:53;100751.06;;;21.31;74.26
22206;BME280;11272;50.104;8.754;2022-10-16T15:43:19;100753.56;;;21.34;74.42
22206;BME280;11272;50.104;8.754;2022-10-16T15:46:01;100745.25;;;21.37;74.35
22206;BME280;11272;50.104;8.754;2022-10-16T15:48:29;100754.16;;;21.39;74.31
22206;BME280;11272;50.104;8.754;2022-10-16T15:50:55;100763.31;;;21.36;74.47
22206;BME280;11272;50.104;8.754;2022-10-16T15:53:20;100763.97;;;21.26;75.06
22206;BME280;11272;50.104;8.754;2022-10-16T15:55:46;100765.38;;;21.17;75.85
22206;BME280;11272;50.104;8.754;2022-10-16T15:58:11;100768.41;;;21.11;76.23
22206;BME280;11272;50.104;8.754;2022-10-16T16:00:37;100772.44;;;21.04;76.99
22206;BME280;11272;50.104;8.754;2022-10-16T16:03:03;100762.75;;;21.00;77.28
22206;BME280;11272;50.104;8.754;2022-10-16T16:05:29;100766.44;;;20.99;77.78
22206;BME280;11272;50.104;8.754;2022-10-16T16:07:55;100770.78;;;21.01;77.73
22206;BME280;11272;50.104;8.754;2022-10-16T16:10:20;100768.00;;;21.03;77.63
22206;BME280;11272;50.104;8.754;2022-10-16T16:12:47;100764.44;;;21.02;77.51
22206;BME280;11272;50.104;8.754;2022-10-16T16:15:20;100758.44;;;20.97;77.82
22206;BME280;11272;50.104;8.754;2022-10-16T16:17:47;100764.00;;;20.94;77.94
22206;BME280;11272;50.104;8.754;2022-10-16T16:20:13;100771.69;;;20.86;78.30
22206;BME280;11272;50.104;8.754;2022-10-16T16:22:38;100773.59;;;20.84;78.62
22206;BME280;11272;50.104;8.754;2022-10-16T16:25:05;100769.94;;;20.85;78.97
22206;BME280;11272;50.104;8.754;2022-10-16T16:27:31;100771.00;;;20.83;79.01
22206;BME280;11272;50.104;8.754;2022-10-16T16:29:59;100773.13;;;20.78;79.13
22206;BME280;11272;50.104;8.754;2022-10-16T16:32:24;100779.75;;;20.72;79.28
22206;BME280;11272;50.104;8.754;2022-10-16T16:34:50;100776.44;;;20.67;79.70
22206;BME280;11272;50.104;8.754;2022-10-16T16:37:16;100780.25;;;20.63;79.77
22206;BME280;11272;50.104;8.754;2022-10-16T16:39:41;100776.25;;;20.54;80.03
22206;BME280;11272;50.104;8.754;2022-10-16T16:42:07;100777.47;;;20.49;80.55
22206;BME280;11272;50.104;8.754;2022-10-16T16:44:33;100781.31;;;20.45;80.84
22206;BME280;11272;50.104;8.754;2022-10-16T16:47:02;100781.47;;;20.42;81.01
22206;BME280;11272;50.104;8.754;2022-10-16T16:49:28;100779.03;;;20.37;81.38
22206;BME280;11272;50.104;8.754;2022-10-16T16:51:54;100778.34;;;20.34;81.60
22206;BME280;11272;50.104;8.754;2022-10-16T16:54:20;100781.16;;;20.31;81.99
22206;BME280;11272;50.104;8.754;2022-10-16T16:56:45;100792.06;;;20.29;82.07
22206;BME280;11272;50.104;8.754;2022-10-16T16:59:13;100793.28;;;20.24;82.26
22206;BME280;11272;50.104;8.754;2022-10-16T17:01:40;100798.94;;;20.19;82.43
22206;BME280;11272;50.104;8.754;2022-10-16T17:04:06;100796.47;;;20.14;82.65
22206;BME280;11272;50.104;8.754;2022-10-16T17:06:32;100808.44;;;20.09;83.10
22206;BME280;11272;50.104;8.754;2022-10-16T17:08:57;100806.94;;;20.03;83.35
22206;BME280;11272;50.104;8.754;2022-10-16T17:11:25;100813.47;;;19.99;83.65
22206;BME280;11272;50.104;8.754;2022-10-16T17:13:53;100813.59;;;19.98;83.69
22206;BME280;11272;50.104;8.754;2022-10-16T17:16:20;100817.38;;;19.94;83.98
22206;BME280;11272;50.104;8.754;2022-10-16T17:18:45;100813.09;;;19.90;84.36
22206;BME280;11272;50.104;8.754;2022-10-16T17:21:11;100811.47;;;19.87;84.42
22206;BME280;11272;50.104;8.754;2022-10-16T17:23:38;100809.88;;;19.83;84.69
22206;BME280;11272;50.104;8.754;2022-10-16T17:26:21;100809.09;;;19.81;85.04
22206;BME280;11272;50.104;8.754;2022-10-16T17:28:50;100806.47;;;19.80;84.89
22206;BME280;11272;50.104;8.754;2022-10-16T17:31:26;100817.19;;;19.81;84.90
22206;BME280;11272;50.104;8.754;2022-10-16T17:33:52;100822.72;;;19.78;84.88
22206;BME280;11272;50.104;8.754;2022-10-16T17:36:19;100822.91;;;19.75;85.32
22206;BME280;11272;50.104;8.754;2022-10-16T17:38:45;100827.47;;;19.73;85.30
22206;BME280;11272;50.104;8.754;2022-10-16T17:41:19;100827.66;;;19.70;85.57
22206;BME280;11272;50.104;8.754;2022-10-16T17:43:46;100827.81;;;19.67;85.60
22206;BME280;11272;50.104;8.754;2022-10-16T17:46:13;100830.03;;;19.59;85.69
22206;BME280;11272;50.104;8.754;2022-10-16T17:48:43;100828.69;;;19.50;86.04
22206;BME280;11272;50.104;8.754;2022-10-16T17:51:12;100827.16;;;19.45;86.12
22206;BME280;11272;50.104;8.754;2022-10-16T17:53:39;100833.75;;;19.39;86.23
22206;BME280;11272;50.104;8.754;2022-10-16T17:56:06;100838.56;;;19.32;86.29
22206;BME280;11272;50.104;8.754;2022-10-16T17:58:32;100849.56;;;19.28;86.35
22206;BME280;11272;50.104;8.754;2022-10-16T18:00:57;100845.38;;;19.22;86.61
22206;BME280;11272;50.104;8.754;2022-10-16T18:03:23;100842.97;;;19.16;86.60
22206;BME280;11272;50.104;8.754;2022-10-16T18:05:54;100839.78;;;19.08;86.75
22206;BME280;11272;50.104;8.754;2022-10-16T18:08:21;100845.47;;;19.02;87.00
22206;BME280;11272;50.104;8.754;2022-10-16T18:10:48;100844.75;;;18.99;87.33
22206;BME280;11272;50.104;8.754;2022-10-16T18:13:15;100852.91;;;18.97;87.49
22206;BME280;11272;50.104;8.754;2022-10-16T18:15:42;100853.13;;;18.92;87.55
22206;BME280;11272;50.104;8.754;2022-10-16T18:18:08;100847.09;;;18.87;87.69
22206;BME280;11272;50.104;8.754;2022-10-16T18:20:33;100860.63;;;18.86;87.98
22206;BME280;11272;50.104;8.754;2022-10-16T18:22:59;100859.84;;;18.84;88.13
22206;BME280;11272;50.104;8.754;2022-10-16T18:25:24;100857.09;;;18.85;88.65
22206;BME280;11272;50.104;8.754;2022-10-16T18:27:53;100850.84;;;18.85;88.97
22206;BME280;11272;50.104;8.754;2022-10-16T18:30:19;100853.59;;;18.83;89.13
22206;BME280;11272;50.104;8.754;2022-10-16T18:32:45;100858.09;;;18.83;89.03
22206;BME280;11272;50.104;8.754;2022-10-16T18:35:10;100846.75;;;18.76;88.84
22206;BME280;11272;50.104;8.754;2022-10-16T18:37:36;100859.50;;;18.73;88.62
22206;BME280;11272;50.104;8.754;2022-10-16T18:40:02;100864.34;;;18.65;88.84
22206;BME280;11272;50.104;8.754;2022-10-16T18:42:29;100862.94;;;18.58;89.02
22206;BME280;11272;50.104;8.754;2022-10-16T18:44:54;100868.44;;;18.55;89.28
22206;BME280;11272;50.104;8.754;2022-10-16T18:47:20;100868.44;;;18.55;89.10
22206;BME280;11272;50.104;8.754;2022-10-16T18:49:48;100866.81;;;18.50;88.85
22206;BME280;11272;50.104;8.754;2022-10-16T18:52:14;100867.03;;;18.46;89.02
22206;BME280;11272;50.104;8.754;2022-10-16T18:54:40;100866.16;;;18.45;89.14
22206;BME280;11272;50.104;8.754;2022-10-16T18:57:06;100868.03;;;18.43;89.04
22206;BME280;11272;50.104;8.754;2022-10-16T18:59:31;100879.88;;;18.39;89.16